Time;durP1;ratioP1;P1;durP2;ratioP2;P2;SDS_P1;SDS_P2;PMS_P1;PMS_P2;Temp;Humidity;BMP_temperature;BMP_pressure;BME280_temperature;BME280_humidity;BME280_pressure;Samples;Min_cycle;Max_cycle;Signal;HPM_P1;HPM_P2
2022/03/14 00:00:42;;;;;;;11.10;9.90;;;;;;;;;;5021135;28;20482;-84
2022/03/14 00:03:10;;;;;;;11.02;9.82;;;;;;;;;;5022689;28;20429;-83
2022/03/14 00:05:36;;;;;;;12.10;10.70;;;;;;;;;;5021335;28;20427;-82
2022/03/14 00:08:02;;;;;;;16.70;10.73;;;;;;;;;;5022862;28;20422;-81
2022/03/14 00:10:29;;;;;;;12.73;10.60;;;;;;;;;;5023134;28;20431;-83
2022/03/14 00:12:58;;;;;;;13.43;10.10;;;;;;;;;;5022472;28;20864;-82
2022/03/14 00:15:29;;;;;;;12.50;10.82;;;;;;;;;;5019384;28;20498;-82
2022/03/14 00:17:56;;;;;;;13.27;10.50;;;;;;;;;;5022403;28;20941;-83
2022/03/14 00:20:23;;;;;;;14.52;10.50;;;;;;;;;;5021377;28;21281;-83
2022/03/14 00:22:49;;;;;;;12.70;10.10;;;;;;;;;;5019348;28;20583;-84
2022/03/14 00:25:16;;;;;;;10.63;9.50;;;;;;;;;;5020303;28;20427;-82
2022/03/14 00:27:42;;;;;;;15.77;11.15;;;;;;;;;;5022267;28;20852;-80
2022/03/14 00:30:11;;;;;;;16.08;11.13;;;;;;;;;;5020907;28;20422;-83
2022/03/14 00:32:37;;;;;;;14.20;11.02;;;;;;;;;;5020300;28;20418;-82
2022/03/14 00:35:03;;;;;;;14.00;11.15;;;;;;;;;;5020950;28;20909;-83
2022/03/14 00:37:30;;;;;;;15.50;11.93;;;;;;;;;;5021498;28;20485;-83
2022/03/14 00:39:56;;;;;;;11.10;9.90;;;;;;;;;;5020103;28;20478;-83
2022/03/14 00:42:22;;;;;;;14.50;10.85;;;;;;;;;;5021204;28;20485;-83
2022/03/14 00:44:49;;;;;;;14.40;10.27;;;;;;;;;;5022419;28;20484;-82
2022/03/14 00:47:17;;;;;;;14.32;10.70;;;;;;;;;;5021164;28;20430;-83
2022/03/14 00:49:43;;;;;;;14.23;10.02;;;;;;;;;;5020933;28;20444;-83
2022/03/14 00:52:10;;;;;;;12.50;10.50;;;;;;;;;;5020104;28;20488;-82
2022/03/14 00:54:37;;;;;;;16.30;10.45;;;;;;;;;;5021275;28;20528;-84
2022/03/14 00:57:03;;;;;;;11.77;9.90;;;;;;;;;;5021518;28;20427;-83
2022/03/14 00:59:29;;;;;;;14.15;10.45;;;;;;;;;;5022244;28;20421;-83
2022/03/14 01:01:55;;;;;;;10.80;9.57;;;;;;;;;;5020146;28;20434;-84
2022/03/14 01:04:23;;;;;;;12.75;10.93;;;;;;;;;;5021168;28;20480;-83
2022/03/14 01:06:49;;;;;;;12.90;10.50;;;;;;;;;;5020147;28;20435;-81
2022/03/14 01:09:16;;;;;;;12.70;10.65;;;;;;;;;;5020855;28;20424;-83
2022/03/14 01:11:42;;;;;;;12.73;10.10;;;;;;;;;;5020710;28;20475;-81
2022/03/14 01:14:08;;;;;;;13.40;10.35;;;;;;;;;;5022610;28;20429;-83
2022/03/14 01:16:35;;;;;;;15.88;10.90;;;;;;;;;;5020568;28;20426;-83
2022/03/14 01:19:01;;;;;;;12.88;10.70;;;;;;;;;;5060953;23;20429;-85
2022/03/14 01:21:30;;;;;;;12.63;10.32;;;;;;;;;;5038147;28;20487;-83
2022/03/14 01:23:56;;;;;;;12.73;10.45;;;;;;;;;;5039846;28;20410;-85
2022/03/14 01:26:22;;;;;;;13.70;10.60;;;;;;;;;;5039363;28;20431;-84
2022/03/14 01:28:49;;;;;;;12.50;10.60;;;;;;;;;;5039112;28;20852;-83
2022/03/14 01:31:15;;;;;;;13.68;11.23;;;;;;;;;;5035913;28;20932;-83
2022/03/14 01:33:41;;;;;;;10.82;9.73;;;;;;;;;;5039377;28;20434;-83
2022/03/14 01:36:08;;;;;;;12.75;10.32;;;;;;;;;;5036767;28;20431;-83
2022/03/14 01:38:35;;;;;;;13.80;10.60;;;;;;;;;;5036962;28;20430;-83
2022/03/14 01:41:01;;;;;;;13.17;10.90;;;;;;;;;;5039571;28;20476;-82
2022/03/14 01:43:28;;;;;;;12.40;10.55;;;;;;;;;;5041175;28;20675;-82
2022/03/14 01:45:55;;;;;;;13.15;10.38;;;;;;;;;;5037515;28;20439;-82
2022/03/14 01:48:21;;;;;;;12.23;10.85;;;;;;;;;;5038589;28;20491;-83
2022/03/14 01:50:47;;;;;;;13.80;10.75;;;;;;;;;;5038612;28;20427;-83
2022/03/14 01:53:14;;;;;;;14.63;10.77;;;;;;;;;;5040153;28;20471;-82
2022/03/14 01:55:41;;;;;;;12.85;10.50;;;;;;;;;;5038397;28;20841;-82
2022/03/14 01:58:07;;;;;;;11.52;10.32;;;;;;;;;;5037525;28;20418;-83
2022/03/14 02:00:34;;;;;;;12.33;9.90;;;;;;;;;;5039913;28;20427;-82
2022/03/14 02:03:00;;;;;;;15.48;10.80;;;;;;;;;;5036189;28;20493;-83
2022/03/14 02:05:27;;;;;;;12.70;10.82;;;;;;;;;;5038587;28;20488;-84
2022/03/14 02:07:56;;;;;;;13.35;10.48;;;;;;;;;;5038512;28;20461;-83
2022/03/14 02:10:22;;;;;;;14.23;11.20;;;;;;;;;;5038662;28;20427;-83
2022/03/14 02:12:49;;;;;;;13.90;11.05;;;;;;;;;;5039912;28;20423;-83
2022/03/14 02:15:16;;;;;;;13.77;10.70;;;;;;;;;;5037681;28;20978;-83
2022/03/14 02:17:42;;;;;;;13.60;10.80;;;;;;;;;;5041038;28;20891;-81
2022/03/14 02:20:10;;;;;;;13.95;10.90;;;;;;;;;;5037690;28;20426;-82
2022/03/14 02:22:37;;;;;;;15.97;11.50;;;;;;;;;;5039521;28;20500;-82
2022/03/14 02:25:08;;;;;;;12.55;11.07;;;;;;;;;;5036867;28;20419;-83
2022/03/14 02:27:34;;;;;;;13.38;11.20;;;;;;;;;;5040299;28;20425;-83
2022/03/14 02:30:02;;;;;;;12.73;10.93;;;;;;;;;;5036849;28;20477;-83
2022/03/14 02:32:29;;;;;;;14.43;11.00;;;;;;;;;;5039380;28;20427;-83
2022/03/14 02:34:55;;;;;;;13.45;11.02;;;;;;;;;;5039317;28;20428;-83
2022/03/14 02:37:23;;;;;;;12.65;10.27;;;;;;;;;;5039582;28;20429;-82
2022/03/14 02:39:49;;;;;;;16.00;11.70;;;;;;;;;;5039843;28;20423;-83
2022/03/14 02:42:15;;;;;;;13.25;10.70;;;;;;;;;;5039804;28;20423;-83
2022/03/14 02:44:43;;;;;;;14.43;10.43;;;;;;;;;;5039031;28;20418;-84
2022/03/14 02:47:09;;;;;;;15.45;11.27;;;;;;;;;;5037109;28;20521;-81
2022/03/14 02:49:35;;;;;;;15.15;11.60;;;;;;;;;;5040284;28;20417;-83
2022/03/14 02:52:01;;;;;;;12.75;10.63;;;;;;;;;;5039892;28;20434;-82
2022/03/14 02:54:29;;;;;;;14.30;11.23;;;;;;;;;;5045057;28;20434;-83
2022/03/14 02:56:56;;;;;;;16.90;11.02;;;;;;;;;;5044581;28;21108;-82
2022/03/14 02:59:23;;;;;;;13.27;11.48;;;;;;;;;;5042612;28;20422;-82
2022/03/14 03:01:49;;;;;;;12.98;10.80;;;;;;;;;;5042885;28;20448;-82
2022/03/14 03:04:15;;;;;;;16.17;11.70;;;;;;;;;;5045474;28;20444;-80
2022/03/14 03:06:42;;;;;;;15.05;11.20;;;;;;;;;;5044430;28;20439;-84
2022/03/14 03:09:09;;;;;;;16.50;12.45;;;;;;;;;;5045119;28;20471;-83
2022/03/14 03:11:36;;;;;;;17.73;12.10;;;;;;;;;;5043856;28;20511;-83
2022/03/14 03:14:03;;;;;;;15.87;12.53;;;;;;;;;;5044280;28;20443;-83
2022/03/14 03:16:29;;;;;;;17.60;12.23;;;;;;;;;;5043385;28;20826;-84
2022/03/14 03:18:56;;;;;;;14.45;11.50;;;;;;;;;;5042163;28;20438;-84
2022/03/14 03:21:23;;;;;;;14.70;12.52;;;;;;;;;;5044282;28;20514;-83
2022/03/14 03:23:49;;;;;;;16.05;11.70;;;;;;;;;;5045203;28;20425;-83
2022/03/14 03:26:15;;;;;;;14.17;11.10;;;;;;;;;;5045668;28;20485;-82
2022/03/14 03:28:43;;;;;;;14.82;12.13;;;;;;;;;;5044246;28;20418;-85
2022/03/14 03:31:10;;;;;;;14.30;11.75;;;;;;;;;;5045249;28;20486;-82
2022/03/14 03:33:36;;;;;;;15.32;12.40;;;;;;;;;;5043821;28;20729;-83
2022/03/14 03:36:03;;;;;;;15.75;11.20;;;;;;;;;;5041700;28;22613;-83
2022/03/14 03:38:29;;;;;;;13.68;11.40;;;;;;;;;;5044396;28;20426;-83
2022/03/14 03:40:55;;;;;;;15.60;11.38;;;;;;;;;;5045396;28;20460;-82
2022/03/14 03:43:22;;;;;;;17.55;12.05;;;;;;;;;;5043109;28;20426;-82
2022/03/14 03:45:49;;;;;;;14.80;11.40;;;;;;;;;;5039790;28;20483;-83
2022/03/14 03:48:15;;;;;;;13.47;10.87;;;;;;;;;;5039207;28;20470;-82
2022/03/14 03:50:42;;;;;;;13.55;11.40;;;;;;;;;;5038641;28;20427;-82
2022/03/14 03:53:08;;;;;;;14.80;12.27;;;;;;;;;;5039238;28;20450;-83
2022/03/14 03:55:35;;;;;;;13.45;11.80;;;;;;;;;;5041846;28;20482;-82
2022/03/14 03:58:01;;;;;;;14.52;11.63;;;;;;;;;;5040966;28;20417;-82
2022/03/14 04:00:27;;;;;;;16.52;12.15;;;;;;;;;;5039650;28;20942;-83
2022/03/14 04:02:55;;;;;;;16.97;12.00;;;;;;;;;;5041116;28;20557;-82
2022/03/14 04:05:22;;;;;;;13.38;11.98;;;;;;;;;;5039361;28;20974;-83
2022/03/14 04:07:48;;;;;;;15.20;11.82;;;;;;;;;;5039758;28;20556;-83
2022/03/14 04:10:15;;;;;;;13.93;11.23;;;;;;;;;;5038372;28;20455;-82
2022/03/14 04:12:44;;;;;;;14.77;11.23;;;;;;;;;;5040696;28;20429;-83
2022/03/14 04:15:10;;;;;;;16.10;11.27;;;;;;;;;;5041373;28;20438;-82
2022/03/14 04:17:38;;;;;;;13.07;10.70;;;;;;;;;;5041754;28;20421;-83
2022/03/14 04:20:06;;;;;;;13.93;11.38;;;;;;;;;;5038696;28;20484;-83
2022/03/14 04:22:35;;;;;;;12.85;10.70;;;;;;;;;;5041285;28;20419;-84
2022/03/14 04:25:02;;;;;;;13.98;10.82;;;;;;;;;;5038524;28;20439;-83
2022/03/14 04:27:28;;;;;;;14.88;11.90;;;;;;;;;;5040304;28;20905;-82
2022/03/14 04:29:54;;;;;;;17.50;11.98;;;;;;;;;;5039555;28;20463;-83
2022/03/14 04:32:20;;;;;;;14.95;11.60;;;;;;;;;;5036606;28;20444;-82
2022/03/14 04:34:46;;;;;;;15.50;11.53;;;;;;;;;;5040246;28;20429;-83
2022/03/14 04:37:14;;;;;;;16.65;12.40;;;;;;;;;;5038881;28;20944;-83
2022/03/14 04:39:41;;;;;;;18.40;12.20;;;;;;;;;;5038833;28;20433;-82
2022/03/14 04:42:07;;;;;;;15.18;12.05;;;;;;;;;;5038492;28;20449;-82
2022/03/14 04:44:34;;;;;;;16.02;11.95;;;;;;;;;;5041477;28;20413;-82
2022/03/14 04:47:00;;;;;;;17.35;12.48;;;;;;;;;;5038124;28;20429;-83
2022/03/14 04:49:28;;;;;;;15.60;11.52;;;;;;;;;;5040172;28;20432;-82
2022/03/14 04:51:55;;;;;;;15.32;11.50;;;;;;;;;;5038601;28;20453;-83
2022/03/14 04:54:23;;;;;;;13.82;12.10;;;;;;;;;;5038989;28;20438;-83
2022/03/14 04:56:49;;;;;;;17.42;12.95;;;;;;;;;;5038924;28;20430;-84
2022/03/14 04:59:15;;;;;;;14.98;11.93;;;;;;;;;;5037233;28;20448;-83
2022/03/14 05:01:42;;;;;;;15.95;11.88;;;;;;;;;;5039388;28;20426;-83
2022/03/14 05:04:08;;;;;;;16.08;12.18;;;;;;;;;;5038254;28;20782;-83
2022/03/14 05:06:34;;;;;;;14.70;12.18;;;;;;;;;;5038570;28;20945;-83
2022/03/14 05:09:01;;;;;;;15.75;11.55;;;;;;;;;;5040984;28;21287;-82
2022/03/14 05:11:28;;;;;;;15.95;12.07;;;;;;;;;;5039399;28;20429;-82
2022/03/14 05:13:54;;;;;;;16.27;11.90;;;;;;;;;;5039807;28;20909;-83
2022/03/14 05:16:21;;;;;;;15.95;12.10;;;;;;;;;;5040082;28;20419;-83
2022/03/14 05:18:48;;;;;;;14.10;11.85;;;;;;;;;;5038340;28;21087;-83
2022/03/14 05:21:14;;;;;;;15.00;11.60;;;;;;;;;;5032501;28;20426;-83
2022/03/14 05:23:41;;;;;;;16.60;12.20;;;;;;;;;;5037298;28;20952;-82
2022/03/14 05:26:07;;;;;;;19.83;13.20;;;;;;;;;;5039076;28;20826;-82
2022/03/14 05:28:34;;;;;;;17.95;13.25;;;;;;;;;;5039510;28;20905;-82
2022/03/14 05:31:01;;;;;;;15.40;12.80;;;;;;;;;;5038026;28;20435;-83
2022/03/14 05:33:27;;;;;;;20.27;13.52;;;;;;;;;;5040022;28;20444;-83
2022/03/14 05:35:54;;;;;;;19.95;12.98;;;;;;;;;;5038762;28;20473;-83
2022/03/14 05:38:21;;;;;;;16.92;13.80;;;;;;;;;;5039562;28;20836;-82
2022/03/14 05:40:47;;;;;;;17.05;12.48;;;;;;;;;;5038242;28;20425;-82
2022/03/14 05:43:14;;;;;;;18.85;12.68;;;;;;;;;;5034383;28;20986;-83
2022/03/14 05:45:41;;;;;;;17.60;12.52;;;;;;;;;;5039735;28;20429;-82
2022/03/14 05:48:08;;;;;;;16.48;13.65;;;;;;;;;;5038996;28;20421;-82
2022/03/14 05:50:34;;;;;;;17.77;12.20;;;;;;;;;;5038401;28;20436;-82
2022/03/14 05:53:01;;;;;;;18.33;13.10;;;;;;;;;;5041193;28;20766;-82
2022/03/14 05:55:27;;;;;;;16.10;12.70;;;;;;;;;;5036426;28;20988;-82
2022/03/14 05:57:53;;;;;;;20.73;13.60;;;;;;;;;;5038621;28;20925;-82
2022/03/14 06:00:24;;;;;;;18.40;12.65;;;;;;;;;;5036066;28;20441;-82
2022/03/14 06:02:52;;;;;;;21.63;13.43;;;;;;;;;;5035989;28;20451;-82
2022/03/14 06:05:19;;;;;;;19.08;13.32;;;;;;;;;;5038633;28;20411;-82
2022/03/14 06:07:45;;;;;;;20.00;13.35;;;;;;;;;;5039253;28;20428;-82
2022/03/14 06:10:15;;;;;;;18.30;12.40;;;;;;;;;;5039904;28;20414;-83
2022/03/14 06:12:41;;;;;;;21.67;13.40;;;;;;;;;;5036940;28;20915;-84
2022/03/14 06:15:09;;;;;;;19.27;14.32;;;;;;;;;;5041054;28;20435;-84
2022/03/14 06:17:35;;;;;;;20.07;14.07;;;;;;;;;;5040663;28;20434;-84
2022/03/14 06:20:03;;;;;;;24.02;14.73;;;;;;;;;;5038420;28;20459;-84
2022/03/14 06:22:29;;;;;;;21.10;15.82;;;;;;;;;;5037889;28;20491;-83
2022/03/14 06:24:56;;;;;;;18.05;13.38;;;;;;;;;;5040401;28;20417;-84
2022/03/14 06:27:24;;;;;;;21.23;13.43;;;;;;;;;;5043837;28;20537;-84
2022/03/14 06:29:50;;;;;;;19.48;14.60;;;;;;;;;;5042347;28;20421;-84
2022/03/14 06:32:17;;;;;;;17.40;14.15;;;;;;;;;;5041602;28;20429;-84
2022/03/14 06:34:43;;;;;;;21.13;15.65;;;;;;;;;;5044001;28;20485;-83
2022/03/14 06:37:12;;;;;;;21.45;16.10;;;;;;;;;;5042760;28;20426;-84
2022/03/14 06:39:38;;;;;;;22.10;15.90;;;;;;;;;;5041270;28;20989;-84
2022/03/14 06:42:06;;;;;;;18.38;15.93;;;;;;;;;;5040883;28;20433;-84
2022/03/14 06:44:32;;;;;;;20.90;16.55;;;;;;;;;;5036493;28;20439;-84
2022/03/14 06:46:59;;;;;;;20.58;16.05;;;;;;;;;;5041082;28;20426;-84
2022/03/14 06:49:25;;;;;;;21.55;17.25;;;;;;;;;;5040593;28;20916;-84
2022/03/14 06:51:51;;;;;;;22.75;17.58;;;;;;;;;;5042338;28;20433;-84
2022/03/14 06:54:19;;;;;;;21.77;17.90;;;;;;;;;;5044132;28;20424;-84
2022/03/14 06:56:47;;;;;;;19.83;16.70;;;;;;;;;;5042106;28;20932;-84
2022/03/14 06:59:13;;;;;;;22.02;18.08;;;;;;;;;;5042225;28;20429;-84
2022/03/14 07:01:40;;;;;;;25.73;18.63;;;;;;;;;;5042525;28;20487;-84
2022/03/14 07:04:06;;;;;;;21.52;17.95;;;;;;;;;;5041685;28;20433;-84
2022/03/14 07:06:34;;;;;;;21.40;17.27;;;;;;;;;;5041607;28;20426;-84
2022/03/14 07:09:00;;;;;;;25.10;19.80;;;;;;;;;;5042316;28;20469;-84
2022/03/14 07:11:28;;;;;;;23.70;19.88;;;;;;;;;;5039205;28;20445;-84
2022/03/14 07:13:54;;;;;;;25.88;19.30;;;;;;;;;;5041731;28;20430;-84
2022/03/14 07:16:20;;;;;;;26.48;20.48;;;;;;;;;;5041634;28;21028;-84
2022/03/14 07:18:47;;;;;;;23.10;19.23;;;;;;;;;;5057297;23;20439;-83
2022/03/14 07:21:13;;;;;;;24.38;19.60;;;;;;;;;;5059858;28;20465;-83
2022/03/14 07:23:40;;;;;;;24.13;19.95;;;;;;;;;;5057142;28;20486;-82
2022/03/14 07:26:06;;;;;;;24.60;20.45;;;;;;;;;;5059050;28;20420;-83
2022/03/14 07:28:34;;;;;;;27.63;20.70;;;;;;;;;;5061776;28;20505;-83
2022/03/14 07:31:00;;;;;;;27.00;21.13;;;;;;;;;;5057758;28;20435;-83
2022/03/14 07:33:28;;;;;;;27.08;22.10;;;;;;;;;;5057636;28;20431;-82
2022/03/14 07:35:54;;;;;;;28.08;22.20;;;;;;;;;;5056293;28;20419;-82
2022/03/14 07:38:21;;;;;;;29.98;22.45;;;;;;;;;;5057824;28;20427;-83
2022/03/14 07:40:47;;;;;;;29.47;23.10;;;;;;;;;;5059055;28;20496;-83
2022/03/14 07:43:13;;;;;;;27.55;23.40;;;;;;;;;;5060222;28;20438;-83
2022/03/14 07:45:41;;;;;;;29.50;23.50;;;;;;;;;;5058727;28;20454;-84
2022/03/14 07:48:07;;;;;;;28.03;22.60;;;;;;;;;;5060237;28;20415;-83
2022/03/14 07:50:34;;;;;;;29.95;24.52;;;;;;;;;;5060832;28;20484;-84
2022/03/14 07:53:00;;;;;;;31.23;24.73;;;;;;;;;;5058339;28;20443;-83
2022/03/14 07:55:26;;;;;;;28.73;23.45;;;;;;;;;;5059733;28;21190;-83
2022/03/14 07:57:53;;;;;;;28.98;25.20;;;;;;;;;;5060012;28;20975;-84
2022/03/14 08:00:20;;;;;;;31.25;24.55;;;;;;;;;;5059111;28;20446;-83
2022/03/14 08:02:48;;;;;;;29.38;24.50;;;;;;;;;;5059726;28;20431;-83
2022/03/14 08:05:16;;;;;;;30.65;24.98;;;;;;;;;;5057656;28;20439;-84
2022/03/14 08:07:45;;;;;;;33.63;26.83;;;;;;;;;;5057895;28;20515;-83
2022/03/14 08:10:12;;;;;;;36.17;26.63;;;;;;;;;;5060229;28;20429;-83
2022/03/14 08:12:43;;;;;;;35.33;28.27;;;;;;;;;;5059682;28;20424;-83
2022/03/14 08:15:09;;;;;;;34.08;26.80;;;;;;;;;;5059175;28;20431;-83
2022/03/14 08:17:35;;;;;;;34.20;26.55;;;;;;;;;;5061730;28;20420;-83
2022/03/14 08:20:03;;;;;;;31.08;26.00;;;;;;;;;;5058232;28;20477;-84
2022/03/14 08:22:30;;;;;;;34.75;28.30;;;;;;;;;;5060613;28;20430;-85
2022/03/14 08:24:56;;;;;;;36.05;28.58;;;;;;;;;;5059447;28;20425;-84
2022/03/14 08:27:22;;;;;;;39.90;29.27;;;;;;;;;;5058856;28;20423;-84
2022/03/14 08:29:48;;;;;;;36.72;28.45;;;;;;;;;;5058827;28;20514;-84
2022/03/14 08:32:15;;;;;;;36.15;27.73;;;;;;;;;;5059632;28;20425;-83
2022/03/14 08:34:42;;;;;;;36.78;28.90;;;;;;;;;;5059851;28;20879;-84
2022/03/14 08:37:10;;;;;;;34.43;27.43;;;;;;;;;;5057385;28;21014;-84
2022/03/14 08:39:36;;;;;;;34.60;28.67;;;;;;;;;;5059641;28;20952;-85
2022/03/14 08:42:04;;;;;;;39.58;30.45;;;;;;;;;;5057459;28;20433;-84
2022/03/14 08:44:30;;;;;;;38.15;30.38;;;;;;;;;;5059227;28;20445;-83
2022/03/14 08:46:56;;;;;;;37.65;30.30;;;;;;;;;;5057910;28;20433;-82
2022/03/14 08:49:23;;;;;;;36.15;29.65;;;;;;;;;;5058600;28;20421;-83
2022/03/14 08:51:49;;;;;;;38.80;31.38;;;;;;;;;;5057333;28;20427;-84
2022/03/14 08:54:17;;;;;;;37.13;29.40;;;;;;;;;;5059743;28;20425;-84
2022/03/14 08:56:43;;;;;;;41.60;32.70;;;;;;;;;;5058110;28;20413;-82
2022/03/14 08:59:12;;;;;;;40.55;31.48;;;;;;;;;;5057513;28;20466;-83
2022/03/14 09:01:39;;;;;;;39.40;32.45;;;;;;;;;;5058413;28;20439;-83
2022/03/14 09:04:05;;;;;;;42.15;33.20;;;;;;;;;;5058140;28;20449;-85
2022/03/14 09:06:35;;;;;;;43.03;32.70;;;;;;;;;;5056807;28;20421;-83
2022/03/14 09:09:01;;;;;;;39.75;32.70;;;;;;;;;;5058878;28;20760;-83
2022/03/14 09:11:29;;;;;;;42.13;32.63;;;;;;;;;;5058433;28;20432;-83
2022/03/14 09:13:55;;;;;;;42.53;33.13;;;;;;;;;;5059539;28;20423;-84
2022/03/14 09:16:21;;;;;;;40.13;31.73;;;;;;;;;;5057571;28;20442;-83
2022/03/14 09:18:48;;;;;;;42.13;32.60;;;;;;;;;;5054637;28;20437;-83
2022/03/14 09:21:14;;;;;;;42.85;34.00;;;;;;;;;;5058122;28;20481;-82
2022/03/14 09:23:41;;;;;;;40.33;32.53;;;;;;;;;;5059550;28;20940;-83
2022/03/14 09:26:08;;;;;;;43.50;34.88;;;;;;;;;;5058917;28;20419;-82
2022/03/14 09:28:36;;;;;;;42.50;33.47;;;;;;;;;;5059544;28;20420;-83
2022/03/14 09:31:02;;;;;;;48.00;35.42;;;;;;;;;;5058336;28;20493;-83
2022/03/14 09:33:29;;;;;;;47.45;36.83;;;;;;;;;;5060599;28;21104;-83
2022/03/14 09:35:55;;;;;;;47.67;36.83;;;;;;;;;;5056246;28;20917;-82
2022/03/14 09:38:21;;;;;;;50.10;37.67;;;;;;;;;;5059353;28;20952;-82
2022/03/14 09:40:50;;;;;;;44.92;35.60;;;;;;;;;;5059155;28;20473;-84
2022/03/14 09:43:18;;;;;;;46.28;35.08;;;;;;;;;;5059239;28;20433;-83
2022/03/14 09:45:46;;;;;;;49.75;37.72;;;;;;;;;;5055731;28;20415;-82
2022/03/14 09:48:14;;;;;;;47.65;37.00;;;;;;;;;;5058719;28;20515;-83
2022/03/14 09:50:42;;;;;;;41.35;33.40;;;;;;;;;;5056760;28;20838;-83
2022/03/14 09:53:08;;;;;;;42.15;33.63;;;;;;;;;;5059428;28;20420;-83
2022/03/14 09:55:40;;;;;;;47.25;36.90;;;;;;;;;;5058909;28;20479;-84
2022/03/14 09:58:07;;;;;;;57.47;40.80;;;;;;;;;;5058838;28;20578;-82
2022/03/14 10:00:34;;;;;;;55.85;40.25;;;;;;;;;;5054923;28;20429;-80
2022/03/14 10:03:02;;;;;;;56.83;40.95;;;;;;;;;;5058537;28;20942;-83
2022/03/14 10:05:28;;;;;;;54.95;40.33;;;;;;;;;;5057470;28;20496;-83
2022/03/14 10:07:54;;;;;;;57.13;41.15;;;;;;;;;;5058122;28;20485;-83
2022/03/14 10:10:21;;;;;;;54.80;38.10;;;;;;;;;;5055665;28;20415;-83
2022/03/14 10:12:53;;;;;;;50.35;35.40;;;;;;;;;;5055236;28;21282;-83
2022/03/14 10:15:19;;;;;;;40.63;30.77;;;;;;;;;;5056443;28;20427;-82
2022/03/14 10:17:46;;;;;;;39.40;29.52;;;;;;;;;;5056389;28;20457;-84
2022/03/14 10:20:16;;;;;;;32.13;25.92;;;;;;;;;;5054256;28;20419;-84
2022/03/14 10:22:42;;;;;;;31.17;24.38;;;;;;;;;;5057307;28;20479;-82
2022/03/14 10:25:10;;;;;;;30.65;24.85;;;;;;;;;;5055773;28;20431;-83
2022/03/14 10:27:37;;;;;;;30.35;22.48;;;;;;;;;;5057640;28;20417;-83
2022/03/14 10:30:04;;;;;;;29.42;22.40;;;;;;;;;;5053948;28;20509;-84
2022/03/14 10:32:30;;;;;;;28.77;22.30;;;;;;;;;;5057603;28;20435;-83
2022/03/14 10:34:59;;;;;;;31.30;23.77;;;;;;;;;;5056940;28;20989;-84
2022/03/14 10:37:29;;;;;;;29.50;22.20;;;;;;;;;;5055953;28;20525;-83
2022/03/14 10:39:59;;;;;;;24.52;19.42;;;;;;;;;;5055181;28;20431;-84
2022/03/14 10:42:25;;;;;;;26.67;20.03;;;;;;;;;;5056823;28;20479;-83
2022/03/14 10:44:52;;;;;;;21.88;17.88;;;;;;;;;;5056643;28;20515;-84
2022/03/14 10:47:19;;;;;;;22.35;17.92;;;;;;;;;;5055826;28;20497;-83
2022/03/14 10:49:45;;;;;;;21.10;17.27;;;;;;;;;;5053256;28;20515;-83
2022/03/14 10:52:13;;;;;;;23.33;18.15;;;;;;;;;;5058075;28;20836;-83
2022/03/14 10:54:42;;;;;;;20.60;17.63;;;;;;;;;;5058220;28;20505;-84
2022/03/14 10:57:09;;;;;;;21.98;16.70;;;;;;;;;;5056825;28;20416;-83
2022/03/14 10:59:37;;;;;;;19.17;15.20;;;;;;;;;;5056818;28;20917;-83
2022/03/14 11:02:04;;;;;;;21.85;16.23;;;;;;;;;;5056641;28;20437;-83
2022/03/14 11:04:39;;;;;;;18.80;15.40;;;;;;;;;;5056337;28;20826;-83
2022/03/14 11:07:05;;;;;;;19.80;16.23;;;;;;;;;;5055327;28;20425;-83
2022/03/14 11:09:38;;;;;;;23.02;17.70;;;;;;;;;;5056723;28;20904;-83
2022/03/14 11:12:11;;;;;;;23.05;18.60;;;;;;;;;;5056778;28;20433;-83
2022/03/14 11:14:37;;;;;;;21.07;17.50;;;;;;;;;;5060582;28;20586;-83
2022/03/14 11:17:17;;;;;;;17.95;15.05;;;;;;;;;;5060288;28;20477;-84
2022/03/14 11:19:44;;;;;;;18.80;15.30;;;;;;;;;;5059695;28;20494;-82
2022/03/14 11:22:11;;;;;;;20.05;15.88;;;;;;;;;;5059197;28;20425;-82
2022/03/14 11:24:40;;;;;;;19.20;14.95;;;;;;;;;;5061851;28;20461;-84
2022/03/14 11:27:06;;;;;;;16.05;13.00;;;;;;;;;;5060495;28;20437;-82
2022/03/14 11:29:35;;;;;;;14.30;11.80;;;;;;;;;;5060602;28;21018;-83
2022/03/14 11:32:04;;;;;;;13.38;11.88;;;;;;;;;;5059870;28;20425;-83
2022/03/14 11:34:31;;;;;;;13.50;11.48;;;;;;;;;;5059404;28;20495;-84
2022/03/14 11:36:58;;;;;;;13.30;11.35;;;;;;;;;;5058430;28;20425;-83
2022/03/14 11:39:27;;;;;;;14.40;12.40;;;;;;;;;;5059026;28;20827;-83
2022/03/14 11:41:53;;;;;;;14.50;10.50;;;;;;;;;;5058730;28;20433;-83
2022/03/14 11:44:20;;;;;;;15.70;11.27;;;;;;;;;;5060714;28;20428;-81
2022/03/14 11:46:47;;;;;;;11.20;8.50;;;;;;;;;;5060222;28;20425;-83
2022/03/14 11:49:14;;;;;;;10.15;7.80;;;;;;;;;;5058792;28;20457;-83
2022/03/14 11:51:41;;;;;;;9.95;7.80;;;;;;;;;;5058466;28;20479;-81
2022/03/14 11:54:11;;;;;;;9.40;7.30;;;;;;;;;;5059920;28;20548;-83
2022/03/14 11:56:38;;;;;;;8.18;6.88;;;;;;;;;;5061443;28;20507;-82
2022/03/14 11:59:08;;;;;;;9.05;7.70;;;;;;;;;;5061144;28;20417;-81
2022/03/14 12:01:34;;;;;;;7.53;6.73;;;;;;;;;;5060922;28;20504;-82
2022/03/14 12:04:02;;;;;;;8.43;7.47;;;;;;;;;;5064936;28;20413;-81
2022/03/14 12:06:47;;;;;;;9.65;8.23;;;;;;;;;;5061981;28;20939;-81
2022/03/14 12:09:34;;;;;;;10.23;8.63;;;;;;;;;;5066092;28;20411;-81
2022/03/14 12:12:21;;;;;;;11.02;9.93;;;;;;;;;;5064889;28;20429;-83
2022/03/14 12:14:48;;;;;;;12.52;10.80;;;;;;;;;;5065930;28;20431;-82
2022/03/14 12:17:22;;;;;;;13.77;11.80;;;;;;;;;;5064500;28;20473;-82
2022/03/14 12:19:51;;;;;;;12.95;11.50;;;;;;;;;;5064308;28;20446;-82
2022/03/14 12:22:33;;;;;;;14.80;13.23;;;;;;;;;;5061197;28;20984;-81
2022/03/14 12:25:00;;;;;;;15.10;12.40;;;;;;;;;;5062800;28;20532;-83
2022/03/14 12:27:29;;;;;;;15.05;13.48;;;;;;;;;;5063968;28;20479;-83
2022/03/14 12:29:56;;;;;;;16.53;13.57;;;;;;;;;;5063005;28;20519;-82
2022/03/14 12:32:27;;;;;;;18.20;14.43;;;;;;;;;;5063583;28;20429;-82
2022/03/14 12:34:58;;;;;;;17.25;14.80;;;;;;;;;;5065169;28;20429;-84
2022/03/14 12:37:25;;;;;;;20.60;15.20;;;;;;;;;;5060381;28;20453;-81
2022/03/14 12:39:52;;;;;;;18.05;14.90;;;;;;;;;;5059388;28;20454;-84
2022/03/14 12:42:22;;;;;;;17.60;12.30;;;;;;;;;;5063465;28;20841;-82
2022/03/14 12:45:04;;;;;;;15.60;13.43;;;;;;;;;;5063610;28;20841;-83
2022/03/14 12:47:30;;;;;;;13.07;11.45;;;;;;;;;;5063248;28;20469;-84
2022/03/14 12:49:56;;;;;;;13.52;11.93;;;;;;;;;;5063251;28;20415;-83
2022/03/14 12:52:24;;;;;;;14.57;13.07;;;;;;;;;;5063697;28;20430;-83
2022/03/14 12:54:50;;;;;;;13.20;11.80;;;;;;;;;;5065551;28;20570;-82
2022/03/14 12:57:22;;;;;;;15.05;13.20;;;;;;;;;;5062280;28;20449;-83
2022/03/14 12:59:49;;;;;;;15.60;14.00;;;;;;;;;;5064344;28;20415;-83
2022/03/14 13:02:22;;;;;;;16.80;14.75;;;;;;;;;;5064805;28;20432;-82
2022/03/14 13:04:54;;;;;;;20.77;16.45;;;;;;;;;;5063884;28;20851;-82
2022/03/14 13:07:20;;;;;;;21.50;17.45;;;;;;;;;;5062987;28;20479;-82
2022/03/14 13:09:52;;;;;;;24.13;19.17;;;;;;;;;;5062856;28;20489;-82
2022/03/14 13:12:18;;;;;;;24.52;19.90;;;;;;;;;;5062586;28;20447;-82
2022/03/14 13:14:45;;;;;;;26.17;22.20;;;;;;;;;;5065305;28;20543;-82
2022/03/14 13:17:11;;;;;;;26.98;21.83;;;;;;;;;;5064380;28;20444;-83
2022/03/14 13:19:38;;;;;;;27.17;22.30;;;;;;;;;;5073904;22;20435;-87
2022/03/14 13:22:11;;;;;;;27.33;21.85;;;;;;;;;;5054957;28;20433;-86
2022/03/14 13:24:37;;;;;;;26.35;21.77;;;;;;;;;;5059658;28;20832;-87
2022/03/14 13:27:05;;;;;;;29.27;24.30;;;;;;;;;;5054879;28;20923;-87
2022/03/14 13:29:33;;;;;;;32.05;24.55;;;;;;;;;;5059571;28;20428;-84
2022/03/14 13:32:00;;;;;;;29.00;23.90;;;;;;;;;;5059136;28;20524;-84
2022/03/14 13:34:30;;;;;;;26.40;22.10;;;;;;;;;;5059890;28;20451;-84
2022/03/14 13:37:03;;;;;;;31.15;25.15;;;;;;;;;;5074192;28;20424;-84
2022/03/14 13:39:30;;;;;;;31.60;24.93;;;;;;;;;;5081165;28;20672;-84
2022/03/14 13:41:57;;;;;;;29.08;24.63;;;;;;;;;;5079762;28;20479;-84
2022/03/14 13:44:25;;;;;;;29.27;23.77;;;;;;;;;;5079757;28;20426;-84
2022/03/14 13:46:52;;;;;;;31.07;25.10;;;;;;;;;;5079045;28;20816;-83
2022/03/14 13:49:20;;;;;;;32.70;26.58;;;;;;;;;;5078408;28;20414;-84
2022/03/14 13:51:48;;;;;;;33.67;26.80;;;;;;;;;;5076900;28;20429;-84
2022/03/14 13:54:15;;;;;;;32.10;25.42;;;;;;;;;;5079742;28;20422;-84
2022/03/14 13:56:42;;;;;;;29.23;23.80;;;;;;;;;;5079181;28;20936;-84
2022/03/14 13:59:09;;;;;;;27.45;23.20;;;;;;;;;;5079304;28;20820;-85
2022/03/14 14:01:44;;;;;;;32.40;26.48;;;;;;;;;;5079456;28;20418;-84
2022/03/14 14:04:14;;;;;;;37.33;27.13;;;;;;;;;;5075991;28;20415;-87
2022/03/14 14:06:45;;;;;;;28.75;25.15;;;;;;;;;;5076947;28;20475;-85
2022/03/14 14:09:18;;;;;;;31.15;25.50;;;;;;;;;;5079339;28;20508;-84
2022/03/14 14:11:55;;;;;;;30.95;25.70;;;;;;;;;;5078213;28;20481;-84
2022/03/14 14:14:24;;;;;;;31.38;26.00;;;;;;;;;;5078986;28;20433;-84
2022/03/14 14:16:53;;;;;;;32.50;25.80;;;;;;;;;;5075999;28;20505;-86
2022/03/14 14:19:19;;;;;;;44.27;31.40;;;;;;;;;;5076626;28;21102;-86